Time;durP1;ratioP1;P1;durP2;ratioP2;P2;SDS_P1;SDS_P2;PMS_P1;PMS_P2;Temp;Humidity;BMP_temperature;BMP_pressure;BME280_temperature;BME280_humidity;BME280_pressure;Samples;Min_cycle;Max_cycle;Signal;HPM_P1;HPM_P2
2024/01/29 00:02:23;;;;;;;16.12;9.32;;;;;;;2.92;57.66;101943.44;7765229;32;37229;-81
2024/01/29 00:06:40;;;;;;;17.73;10.05;;;;;;;2.90;57.36;101930.12;7764949;32;40020;-81
2024/01/29 00:10:56;;;;;;;21.00;10.05;;;;;;;2.82;57.54;101940.91;7764912;32;39607;-81
2024/01/29 00:15:13;;;;;;;18.05;10.10;;;;;;;2.81;57.24;101941.91;7764793;32;38273;-81
2024/01/29 00:19:29;;;;;;;17.17;8.55;;;;;;;3.08;56.58;101943.41;7750961;32;37905;-81
2024/01/29 00:23:46;;;;;;;18.48;9.18;;;;;;;2.98;56.48;101943.59;7764497;32;39360;-81
2024/01/29 00:28:02;;;;;;;17.60;9.75;;;;;;;3.24;55.81;101947.94;7764736;32;40572;-81
2024/01/29 00:32:19;;;;;;;16.87;9.20;;;;;;;3.13;56.04;101930.28;7764494;32;38745;-81
2024/01/29 00:36:35;;;;;;;18.67;9.48;;;;;;;3.06;55.85;101931.97;7764346;32;38122;-80
2024/01/29 00:40:51;;;;;;;18.98;9.30;;;;;;;2.68;57.43;101931.63;7763290;32;40090;-81
2024/01/29 00:45:09;;;;;;;21.42;9.15;;;;;;;2.76;56.79;101944.25;7764069;32;39945;-81
2024/01/29 00:49:25;;;;;;;15.52;8.98;;;;;;;2.97;56.17;101960.78;7764195;32;38069;-81
2024/01/29 00:53:42;;;;;;;16.20;8.15;;;;;;;3.08;55.82;101974.91;7764125;32;37219;-80
2024/01/29 00:57:58;;;;;;;18.90;8.40;;;;;;;3.01;55.98;101964.81;7764202;32;39067;-81
2024/01/29 01:02:15;;;;;;;16.62;7.57;;;;;;;3.10;55.63;101967.50;7763808;32;40739;-81
2024/01/29 01:06:31;;;;;;;18.67;8.57;;;;;;;2.87;56.36;101984.34;7763808;32;37894;-81
2024/01/29 01:10:48;;;;;;;16.92;8.20;;;;;;;3.11;55.82;101979.97;7763790;32;37265;-80
2024/01/29 01:15:04;;;;;;;15.32;8.55;;;;;;;3.04;55.61;101987.06;7763402;32;39333;-80
2024/01/29 01:19:21;;;;;;;15.77;8.27;;;;;;;2.80;56.30;101988.72;7763517;32;40821;-80
2024/01/29 01:23:38;;;;;;;14.82;9.05;;;;;;;2.92;55.86;101982.00;7763071;32;38633;-80
2024/01/29 01:27:55;;;;;;;15.02;8.93;;;;;;;2.72;55.98;101986.00;7763380;32;37272;-80
2024/01/29 01:32:12;;;;;;;14.70;8.38;;;;;;;2.70;55.45;101993.41;7762714;32;40068;-80
2024/01/29 01:36:29;;;;;;;16.58;8.80;;;;;;;2.80;54.98;101986.84;7763086;32;40003;-80
2024/01/29 01:40:45;;;;;;;14.85;7.90;;;;;;;2.89;54.67;101987.69;7762975;32;37857;-80
2024/01/29 01:45:04;;;;;;;18.65;8.38;;;;;;;2.80;55.04;101975.25;7736827;32;37070;-80
2024/01/29 01:49:21;;;;;;;17.85;8.95;;;;;;;2.77;54.96;101989.03;7763460;32;39071;-79
2024/01/29 01:53:38;;;;;;;18.60;8.20;;;;;;;2.82;54.51;101982.13;7752827;32;40802;-79
2024/01/29 01:57:54;;;;;;;13.07;8.25;;;;;;;2.70;54.75;101978.09;7752702;32;38405;-81
2024/01/29 02:02:12;;;;;;;15.70;8.07;;;;;;;2.87;59.04;101968.19;7766493;32;37370;-80
2024/01/29 02:06:28;;;;;;;17.23;8.70;;;;;;;2.87;57.41;101968.19;7766508;32;39051;-80
2024/01/29 02:10:46;;;;;;;18.25;8.15;;;;;;;2.70;56.21;101969.19;7766366;32;41010;-80
2024/01/29 02:15:03;;;;;;;15.05;8.25;;;;;;;2.23;57.06;101966.03;7766083;32;37622;-80
2024/01/29 02:19:20;;;;;;;15.45;8.20;;;;;;;2.51;56.14;101965.78;7765825;32;37145;-80
2024/01/29 02:23:37;;;;;;;23.33;10.00;;;;;;;2.44;56.23;101972.81;7765430;32;39350;-80
2024/01/29 02:27:53;;;;;;;18.10;8.75;;;;;;;2.40;56.34;101966.94;7765951;32;40727;-81
2024/01/29 02:32:10;;;;;;;19.10;8.68;;;;;;;2.43;56.65;101954.97;7766085;32;37626;-81
2024/01/29 02:36:26;;;;;;;16.83;8.88;;;;;;;2.41;56.35;101943.53;7766097;32;37657;-80
2024/01/29 02:40:43;;;;;;;15.73;9.50;;;;;;;2.30;56.64;101960.00;7766004;32;40180;-81
2024/01/29 02:44:59;;;;;;;15.60;9.38;;;;;;;2.25;57.07;101955.13;7765848;32;39877;-81
2024/01/29 02:49:16;;;;;;;13.70;7.70;;;;;;;2.37;57.12;101951.09;7765846;32;38801;-80
2024/01/29 02:53:32;;;;;;;20.92;9.10;;;;;;;2.40;56.43;101955.34;7765895;32;36878;-80
2024/01/29 02:57:48;;;;;;;13.07;8.65;;;;;;;2.32;56.15;101952.59;7765829;32;39427;-80
2024/01/29 03:02:06;;;;;;;17.75;9.40;;;;;;;2.32;56.05;101955.31;7765064;32;39920;-80
2024/01/29 03:06:23;;;;;;;19.15;10.38;;;;;;;2.30;56.15;101957.31;7765597;32;37905;-80
2024/01/29 03:10:40;;;;;;;22.33;10.38;;;;;;;2.21;56.65;101976.13;7765808;32;37956;-80
2024/01/29 03:14:56;;;;;;;18.27;9.75;;;;;;;1.92;57.69;101978.38;7765313;32;38991;-80
2024/01/29 03:19:14;;;;;;;14.45;8.65;;;;;;;1.92;57.72;101978.38;7765301;32;39597;-80
2024/01/29 03:23:31;;;;;;;20.70;10.88;;;;;;;1.98;57.25;101980.41;7765156;32;37914;-80
2024/01/29 03:27:47;;;;;;;16.77;9.50;;;;;;;1.86;57.48;101980.69;7765490;32;38206;-81
2024/01/29 03:32:04;;;;;;;16.30;8.68;;;;;;;1.76;58.11;101973.72;7765540;32;39289;-80
2024/01/29 03:36:20;;;;;;;16.30;9.27;;;;;;;1.82;57.64;101989.25;7765632;32;41180;-81
2024/01/29 03:40:37;;;;;;;14.45;8.93;;;;;;;1.60;58.76;101990.63;7751491;32;37556;-80
2024/01/29 03:44:53;;;;;;;18.05;10.18;;;;;;;1.91;57.60;101992.81;7765096;32;38000;-81
2024/01/29 03:49:09;;;;;;;15.50;9.38;;;;;;;1.70;57.57;101985.97;7765267;32;39821;-80
2024/01/29 03:53:26;;;;;;;18.40;9.70;;;;;;;1.71;57.66;101982.31;7765316;32;39997;-80
2024/01/29 03:57:42;;;;;;;20.35;10.82;;;;;;;1.80;57.77;101975.94;7765197;32;37604;-80
2024/01/29 04:01:58;;;;;;;19.17;11.18;;;;;;;1.75;57.46;101972.06;7765068;32;38072;-80
2024/01/29 04:06:15;;;;;;;20.58;9.68;;;;;;;1.77;56.92;101967.38;7764927;32;39395;-80
2024/01/29 04:10:31;;;;;;;17.00;9.20;;;;;;;1.65;57.44;101977.56;7764712;32;39998;-80
2024/01/29 04:14:48;;;;;;;18.50;10.00;;;;;;;1.65;57.10;101978.38;7764704;32;37941;-80
2024/01/29 04:19:04;;;;;;;19.25;9.23;;;;;;;1.63;57.09;101963.44;7764909;32;37722;-80
2024/01/29 04:23:20;;;;;;;14.70;8.23;;;;;;;1.54;57.62;101959.00;7764843;32;39132;-80
2024/01/29 04:27:37;;;;;;;17.42;9.05;;;;;;;1.83;56.83;101956.81;7764726;32;39937;-80
2024/01/29 04:31:53;;;;;;;17.55;10.02;;;;;;;1.65;57.10;101954.19;7764612;32;38623;-81
2024/01/29 04:36:14;;;;;;;14.80;8.70;;;;;;;1.66;57.17;101957.72;7764561;32;37272;-80
2024/01/29 04:40:30;;;;;;;16.10;8.52;;;;;;;1.43;57.58;101965.47;7764636;32;39147;-80
2024/01/29 04:44:47;;;;;;;14.38;8.40;;;;;;;1.19;57.98;101971.53;7764360;32;40837;-80
2024/01/29 04:49:03;;;;;;;17.42;9.15;;;;;;;1.05;59.67;101978.31;7764159;32;38808;-80
2024/01/29 04:53:20;;;;;;;19.67;9.77;;;;;;;1.04;59.61;101980.16;7764291;32;37033;-80
2024/01/29 04:57:36;;;;;;;19.50;9.75;;;;;;;1.18;60.49;101985.97;7764241;32;39830;-80
2024/01/29 05:01:53;;;;;;;19.33;9.85;;;;;;;1.26;60.42;101977.97;7763952;32;40916;-80
2024/01/29 05:06:09;;;;;;;20.92;9.90;;;;;;;1.32;60.03;101982.72;7763532;32;37887;-80
2024/01/29 05:10:29;;;;;;;22.52;11.02;;;;;;;1.48;59.01;101980.16;7763768;32;37944;-80
2024/01/29 05:14:45;;;;;;;17.52;9.65;;;;;;;1.37;59.01;101988.47;7763652;32;39366;-80
2024/01/29 05:19:01;;;;;;;18.08;8.65;;;;;;;1.26;59.02;101984.19;7763589;32;40380;-80
2024/01/29 05:23:18;;;;;;;15.65;8.48;;;;;;;1.28;59.32;101986.72;7763301;32;37756;-80
2024/01/29 05:27:34;;;;;;;17.52;9.60;;;;;;;1.52;58.14;101988.75;7766535;32;36969;-79
2024/01/29 05:31:51;;;;;;;14.73;8.30;;;;;;;1.52;57.70;101977.12;7766865;32;39303;-80
2024/01/29 05:36:07;;;;;;;15.05;8.52;;;;;;;1.46;57.48;101984.00;7766855;32;39965;-80
2024/01/29 05:40:24;;;;;;;18.75;9.98;;;;;;;1.49;57.35;101978.31;7766490;32;38806;-79
2024/01/29 05:44:40;;;;;;;16.80;9.57;;;;;;;1.42;57.13;101982.63;7766676;32;36903;-80
2024/01/29 05:48:56;;;;;;;17.20;9.57;;;;;;;1.57;56.66;101983.75;7766749;32;39447;-80
2024/01/29 05:53:13;;;;;;;15.30;9.02;;;;;;;1.63;56.50;101983.09;7766530;32;39914;-80
2024/01/29 05:57:30;;;;;;;16.00;9.05;;;;;;;1.29;57.16;101993.78;7766600;32;38027;-80
2024/01/29 06:01:46;;;;;;;14.87;8.88;;;;;;;1.38;57.28;101984.78;7766621;32;36954;-80
2024/01/29 06:06:04;;;;;;;16.55;8.80;;;;;;;1.32;57.42;101993.47;7766491;32;40151;-79
2024/01/29 06:10:20;;;;;;;15.57;8.73;;;;;;;1.32;57.27;101990.78;7765963;32;40576;-79
2024/01/29 06:14:36;;;;;;;14.02;7.20;;;;;;;1.18;57.78;101999.41;7766548;32;38744;-81
2024/01/29 06:18:53;;;;;;;12.93;7.62;;;;;;;1.03;58.63;101997.25;7766145;32;37761;-80
2024/01/29 06:23:12;;;;;;;14.15;7.93;;;;;;;1.05;58.44;101992.59;7765652;32;39507;-81
2024/01/29 06:27:28;;;;;;;17.02;8.18;;;;;;;0.94;58.64;101996.34;7765909;32;38849;-80
2024/01/29 06:31:44;;;;;;;15.60;8.35;;;;;;;1.18;58.19;101992.19;7765468;32;37861;-80
2024/01/29 06:36:02;;;;;;;19.12;8.38;;;;;;;1.16;58.19;102004.09;7765000;32;37354;-80
2024/01/29 06:40:22;;;;;;;14.75;7.80;;;;;;;0.95;58.93;102007.97;7766169;32;39987;-80
2024/01/29 06:44:40;;;;;;;15.52;7.87;;;;;;;1.10;58.80;102001.03;7765948;32;40975;-80
2024/01/29 06:48:56;;;;;;;15.63;7.95;;;;;;;0.97;59.09;102010.47;7765797;32;37635;-79
2024/01/29 06:53:13;;;;;;;11.80;7.15;;;;;;;1.33;58.02;102016.66;7765756;32;37149;-79
2024/01/29 06:57:29;;;;;;;16.27;9.18;;;;;;;1.47;57.47;102018.78;7765793;32;39266;-80
2024/01/29 07:01:46;;;;;;;21.85;9.40;;;;;;;1.20;57.82;102011.69;7751234;32;40158;-79
2024/01/29 07:06:02;;;;;;;15.35;8.05;;;;;;;1.16;58.17;102020.22;7765587;32;38447;-80
2024/01/29 07:10:18;;;;;;;14.15;8.88;;;;;;;1.37;57.65;102017.19;7765536;32;36905;-79
2024/01/29 07:14:35;;;;;;;17.20;9.20;;;;;;;1.36;57.86;102018.19;7765658;32;39381;-80
2024/01/29 07:18:56;;;;;;;14.73;8.57;;;;;;;1.66;57.42;102023.09;7765578;32;39741;-81
2024/01/29 07:23:13;;;;;;;17.42;8.88;;;;;;;1.60;58.49;102034.47;7765445;32;37857;-79
2024/01/29 07:27:30;;;;;;;17.27;9.05;;;;;;;1.79;58.49;102028.03;7765251;32;37111;-81
2024/01/29 07:31:46;;;;;;;15.63;8.85;;;;;;;1.97;58.70;102028.00;7765426;32;39815;-78
2024/01/29 07:36:03;;;;;;;16.00;9.13;;;;;;;2.25;61.60;102039.38;7765559;32;39758;-81
2024/01/29 07:40:20;;;;;;;14.82;9.00;;;;;;;2.10;59.83;102030.22;7751381;32;38603;-81
2024/01/29 07:44:36;;;;;;;15.93;9.02;;;;;;;2.30;58.71;102030.00;7765435;32;37475;-81
2024/01/29 07:48:53;;;;;;;16.65;9.38;;;;;;;2.61;58.10;102025.72;7764855;32;39558;-81
2024/01/29 07:53:09;;;;;;;20.95;10.77;;;;;;;2.16;59.41;102034.16;7765201;32;39899;-81
2024/01/29 07:57:26;;;;;;;19.48;11.27;;;;;;;2.77;57.56;102029.44;7765084;32;37938;-81
2024/01/29 08:01:44;;;;;;;19.70;11.73;;;;;;;1.35;61.60;102036.16;7741706;32;37264;-81
2024/01/29 08:06:02;;;;;;;21.65;11.57;;;;;;;1.63;61.87;102028.78;7738162;32;39350;-81
2024/01/29 08:10:19;;;;;;;20.52;13.27;;;;;;;2.18;60.49;102026.75;7738067;32;39824;-80
2024/01/29 08:14:35;;;;;;;29.20;13.52;;;;;;;2.82;58.82;102019.03;7737932;32;37976;-81
2024/01/29 08:18:52;;;;;;;23.92;12.93;;;;;;;2.92;58.69;102014.31;7737879;32;37979;-80
2024/01/29 08:23:08;;;;;;;24.33;13.18;;;;;;;3.39;57.94;102005.56;7751002;32;171171;-81
2024/01/29 08:27:27;;;;;;;19.85;11.02;;;;;;;2.78;59.19;102017.69;7764517;32;40860;-80
2024/01/29 08:31:43;;;;;;;20.60;11.73;;;;;;;3.48;58.05;102024.44;7759047;32;37843;-82
2024/01/29 08:36:01;;;;;;;25.05;11.80;;;;;;;3.78;56.88;102024.72;7759619;32;37179;-81
2024/01/29 08:40:17;;;;;;;16.87;9.63;;;;;;;3.93;56.26;102037.34;7749234;32;40065;-81
2024/01/29 08:44:36;;;;;;;17.95;9.10;;;;;;;4.31;55.60;102039.38;7763880;32;40855;-82
2024/01/29 08:48:53;;;;;;;15.25;8.38;;;;;;;4.58;54.99;102032.69;7764144;32;38022;-82
2024/01/29 08:53:09;;;;;;;19.30;9.02;;;;;;;4.79;53.80;102026.63;7764084;32;37104;-82
2024/01/29 08:57:25;;;;;;;17.42;9.40;;;;;;;4.61;53.08;102037.72;7764139;32;39428;-82
2024/01/29 09:01:42;;;;;;;22.10;11.98;;;;;;;4.41;54.56;102041.88;7762638;32;40054;-83
2024/01/29 09:05:58;;;;;;;18.52;11.43;;;;;;;4.14;56.33;102047.56;7763521;32;38555;-83
2024/01/29 09:10:15;;;;;;;19.42;10.77;;;;;;;4.72;54.81;102036.47;7763686;32;38264;-83
2024/01/29 09:14:32;;;;;;;17.92;9.32;;;;;;;4.47;54.59;102042.03;7763728;32;39032;-82
2024/01/29 09:18:48;;;;;;;16.23;9.35;;;;;;;4.54;54.25;102035.94;7763605;32;39727;-82
2024/01/29 09:23:07;;;;;;;17.33;8.20;;;;;;;4.84;53.40;102035.06;7763179;32;38740;-78
2024/01/29 09:27:23;;;;;;;16.62;8.85;;;;;;;4.28;56.48;102034.34;7758536;32;36729;-81
2024/01/29 09:31:43;;;;;;;18.12;9.10;;;;;;;4.69;53.71;102020.63;7761660;32;40097;-82
2024/01/29 09:35:59;;;;;;;17.80;8.98;;;;;;;4.43;54.12;102040.72;7762864;32;39850;-84
2024/01/29 09:40:15;;;;;;;13.93;8.23;;;;;;;4.49;53.90;102034.59;7761863;32;37934;-86
2024/01/29 09:44:41;;;;;;;16.42;8.23;;;;;;;5.25;52.53;102042.88;7762486;32;37122;-86
2024/01/29 09:48:58;;;;;;;17.55;9.02;;;;;;;6.07;51.08;102025.03;7761719;32;39281;-88
2024/01/29 09:53:19;;;;;;;13.80;7.62;;;;;;;5.12;51.55;102034.50;7721694;32;39795;-85
2024/01/29 09:57:36;;;;;;;16.02;8.23;;;;;;;5.57;50.51;102030.09;7735125;32;38746;-86
2024/01/29 10:01:52;;;;;;;15.05;8.20;;;;;;;5.92;50.65;102018.75;7735196;32;37210;-85
2024/01/29 10:06:10;;;;;;;12.75;7.55;;;;;;;6.22;49.57;102016.87;7735117;32;39369;-86
2024/01/29 10:10:27;;;;;;;17.40;8.18;;;;;;;5.95;49.68;102023.75;7754092;32;39908;-84
2024/01/29 10:14:44;;;;;;;14.73;6.85;;;;;;;6.67;49.13;102017.63;7739250;32;37924;-85
2024/01/29 10:19:02;;;;;;;17.62;7.12;;;;;;;6.61;47.70;102010.28;7755295;32;37851;-87
2024/01/29 10:23:18;;;;;;;16.58;6.87;;;;;;;6.61;46.90;102013.00;7766107;32;40455;-87
2024/01/29 10:27:34;;;;;;;12.73;6.40;;;;;;;7.42;46.51;101999.16;7767859;32;40052;-85
2024/01/29 10:31:56;;;;;;;12.90;6.50;;;;;;;7.53;45.17;102000.50;7765317;32;37798;-86
2024/01/29 10:36:13;;;;;;;15.82;7.28;;;;;;;7.55;44.67;101994.88;7765649;32;37130;-84
2024/01/29 10:40:30;;;;;;;16.37;7.32;;;;;;;7.56;45.24;101994.66;7751515;32;39347;-84
2024/01/29 10:44:46;;;;;;;13.20;6.57;;;;;;;7.90;45.19;101998.44;7751701;32;40516;-86
2024/01/29 10:49:03;;;;;;;15.80;7.30;;;;;;;7.87;44.11;101980.66;7751064;32;37951;-86
2024/01/29 10:53:20;;;;;;;12.50;7.25;;;;;;;7.85;44.68;101981.91;7765399;32;37182;-87
2024/01/29 10:57:37;;;;;;;19.20;7.37;;;;;;;8.11;44.07;101977.66;7765179;32;39194;-86
2024/01/29 11:01:55;;;;;;;10.10;6.53;;;;;;;8.32;43.07;101963.94;7751086;32;40018;-86
2024/01/29 11:06:31;;;;;;;12.52;6.95;;;;;;;8.69;43.00;101953.59;7764660;32;38680;-87
2024/01/29 11:10:47;;;;;;;11.85;6.87;;;;;;;9.40;41.71;101941.31;7751875;32;37827;-87
2024/01/29 11:15:04;;;;;;;12.68;6.93;;;;;;;9.14;41.86;101943.00;7765112;32;39077;-86
2024/01/29 11:19:26;;;;;;;12.93;6.60;;;;;;;9.80;40.88;101940.38;7750755;32;41047;-84
2024/01/29 11:23:47;;;;;;;12.32;6.18;;;;;;;10.13;40.48;101930.19;7763281;32;37993;-84
2024/01/29 11:28:06;;;;;;;12.37;6.12;;;;;;;10.43;39.36;101920.63;7764807;32;37172;-87
2024/01/29 11:32:23;;;;;;;10.63;5.87;;;;;;;10.08;40.29;101913.62;7764135;32;39281;-83
2024/01/29 11:36:39;;;;;;;13.48;7.40;;;;;;;10.10;39.54;101903.34;7764452;32;40827;-85
2024/01/29 11:41:02;;;;;;;11.75;6.55;;;;;;;10.32;39.24;101892.19;7751407;32;37959;-84
2024/01/29 11:45:19;;;;;;;12.60;6.12;;;;;;;10.19;39.75;101894.94;7749968;32;37191;-83
2024/01/29 11:49:35;;;;;;;11.85;4.72;;;;;;;10.28;38.87;101882.75;7751456;32;39455;-86
2024/01/29 11:53:52;;;;;;;7.12;3.40;;;;;;;10.90;36.75;101883.78;7765284;32;39479;-83
2024/01/29 11:58:15;;;;;;;7.28;3.97;;;;;;;10.80;36.11;101880.72;7764944;32;37639;-84
2024/01/29 12:02:31;;;;;;;10.73;5.25;;;;;;;11.18;35.03;101881.66;7750929;32;38124;-84
2024/01/29 12:06:53;;;;;;;7.28;3.60;;;;;;;11.50;35.12;101890.56;7764550;32;40124;-83
2024/01/29 12:11:12;;;;;;;8.88;4.32;;;;;;;12.12;33.94;101885.00;7764861;32;40772;-83
2024/01/29 12:15:29;;;;;;;12.05;4.30;;;;;;;11.91;35.21;101880.87;7764957;32;38666;-83
2024/01/29 12:19:47;;;;;;;9.05;3.87;;;;;;;12.09;34.21;101888.22;7764500;32;37203;-84
2024/01/29 12:24:04;;;;;;;8.50;3.90;;;;;;;12.72;33.60;101883.28;7750922;32;39442;-84
2024/01/29 12:28:21;;;;;;;11.63;4.53;;;;;;;12.58;33.08;101879.94;7764653;32;40850;-77
2024/01/29 12:32:39;;;;;;;7.80;4.03;;;;;;;12.82;35.59;101869.03;7764573;32;38819;-83
2024/01/29 12:36:57;;;;;;;11.70;4.62;;;;;;;13.09;33.91;101875.72;7764238;32;37756;-83
2024/01/29 12:41:14;;;;;;;12.37;4.53;;;;;;;13.05;32.77;101873.69;7761342;32;40522;-83
2024/01/29 12:45:32;;;;;;;11.35;4.62;;;;;;;13.19;32.61;101882.50;7764384;32;40653;-84
2024/01/29 12:49:49;;;;;;;9.20;4.10;;;;;;;13.03;32.79;101871.19;7764340;32;37340;-84
2024/01/29 12:54:07;;;;;;;9.60;5.50;;;;;;;13.43;32.91;101873.22;7764757;32;36070;-84
2024/01/29 12:58:26;;;;;;;8.20;4.85;;;;;;;12.55;33.43;101870.28;7764246;32;40082;-84
2024/01/29 13:02:42;;;;;;;10.80;4.80;;;;;;;12.82;33.34;101864.41;7764123;32;40639;-84
2024/01/29 13:06:59;;;;;;;10.05;5.30;;;;;;;12.75;32.96;101872.72;7763755;32;37932;-83
2024/01/29 13:11:16;;;;;;;9.57;4.70;;;;;;;12.72;33.06;101872.34;7763925;32;37380;-84
2024/01/29 13:15:32;;;;;;;9.98;4.18;;;;;;;12.39;33.11;101871.78;7763838;32;39281;-82
2024/01/29 13:19:48;;;;;;;9.07;4.40;;;;;;;13.17;31.92;101860.81;7763441;32;39795;-84
2024/01/29 13:24:06;;;;;;;11.48;4.65;;;;;;;13.06;32.20;101865.25;7763240;32;37885;-75
2024/01/29 13:28:23;;;;;;;10.13;5.12;;;;;;;12.54;34.24;101867.81;7761833;32;37490;-84
2024/01/29 13:32:39;;;;;;;11.20;4.62;;;;;;;12.91;32.89;101849.28;7762869;32;40087;-84
2024/01/29 13:36:56;;;;;;;12.52;4.90;;;;;;;13.05;33.23;101852.62;7762846;32;40067;-74
2024/01/29 13:41:13;;;;;;;8.68;4.87;;;;;;;13.19;33.32;101852.38;7762839;32;37894;-76
2024/01/29 13:45:29;;;;;;;10.10;5.00;;;;;;;13.22;32.43;101850.00;7762236;32;37174;-88
2024/01/29 13:49:46;;;;;;;9.45;4.80;;;;;;;13.80;31.40;101848.25;7765946;32;39375;-82
2024/01/29 13:54:03;;;;;;;11.45;5.28;;;;;;;13.93;30.53;101849.88;7752174;32;40656;-81
2024/01/29 13:58:22;;;;;;;10.30;4.82;;;;;;;14.50;30.51;101845.44;7766481;32;37921;-81
2024/01/29 14:02:38;;;;;;;10.95;4.97;;;;;;;15.51;30.08;101836.28;7765800;32;37163;-88
2024/01/29 14:06:58;;;;;;;9.35;5.35;;;;;;;16.14;28.48;101836.75;7765853;32;39133;-81
2024/01/29 14:11:15;;;;;;;12.40;6.10;;;;;;;16.80;27.26;101827.41;7765542;32;40941;-83
2024/01/29 14:15:31;;;;;;;12.25;5.45;;;;;;;17.45;26.20;101833.63;7766058;32;38686;-80
2024/01/29 14:19:47;;;;;;;9.48;5.30;;;;;;;18.23;24.86;101827.31;7766093;32;37962;-79
2024/01/29 14:24:04;;;;;;;10.63;5.70;;;;;;;19.79;22.67;101824.84;7765272;32;39003;-81
2024/01/29 14:28:21;;;;;;;14.98;5.68;;;;;;;22.58;19.87;101810.50;7765211;32;40045;-81
2024/01/29 14:32:38;;;;;;;11.00;6.03;;;;;;;25.20;16.55;101804.66;7764896;32;37874;-81
2024/01/29 14:36:55;;;;;;;12.40;6.53;;;;;;;26.48;14.87;101802.69;7765357;32;36958;-81
2024/01/29 14:41:11;;;;;;;12.35;6.35;;;;;;;27.53;13.71;101805.16;7765334;32;40056;-80
2024/01/29 14:45:27;;;;;;;11.32;6.12;;;;;;;27.82;13.64;101795.03;7765442;32;40051;-79
2024/01/29 14:49:45;;;;;;;14.68;6.93;;;;;;;28.15;13.34;101805.53;7764475;32;38459;-82
2024/01/29 14:54:02;;;;;;;12.82;6.03;;;;;;;27.54;13.85;101815.16;7765576;32;38089;-81
2024/01/29 14:58:19;;;;;;;14.38;6.47;;;;;;;27.38;13.93;101817.75;7764542;32;41885;-81
2024/01/29 15:02:35;;;;;;;13.60;7.07;;;;;;;27.48;13.95;101822.16;7751385;32;39881;-75
2024/01/29 15:06:51;;;;;;;14.32;7.93;;;;;;;26.71;14.33;101820.09;7765615;32;38082;-81
2024/01/29 15:11:09;;;;;;;14.95;7.47;;;;;;;25.69;15.14;101826.97;7765730;32;37091;-80
2024/01/29 15:15:26;;;;;;;16.42;7.45;;;;;;;24.76;15.83;101830.69;7765721;32;40081;-80
2024/01/29 15:19:42;;;;;;;16.12;6.85;;;;;;;23.77;16.98;101843.28;7765646;32;39599;-80
2024/01/29 15:23:59;;;;;;;12.80;7.00;;;;;;;22.30;18.30;101845.66;7765280;32;38101;-80
2024/01/29 15:28:16;;;;;;;12.43;6.60;;;;;;;20.59;20.03;101859.78;7765412;32;37948;-80
2024/01/29 15:32:33;;;;;;;13.18;6.75;;;;;;;18.14;22.85;101870.34;7765464;32;39212;-79
2024/01/29 15:36:49;;;;;;;13.02;7.20;;;;;;;15.98;25.94;101874.28;7765208;32;40157;-80
2024/01/29 15:41:14;;;;;;;13.65;7.37;;;;;;;14.77;27.88;101884.09;7765270;32;37926;-79
2024/01/29 15:45:30;;;;;;;14.87;7.55;;;;;;;13.18;30.68;101884.41;7765309;32;37818;-79
2024/01/29 15:49:46;;;;;;;16.60;7.80;;;;;;;12.55;31.60;101892.16;7765118;32;39113;-82
2024/01/29 15:54:03;;;;;;;14.63;7.87;;;;;;;11.62;33.49;101899.69;7765090;32;40810;-81
2024/01/29 15:58:23;;;;;;;13.57;7.20;;;;;;;10.89;34.99;101901.22;7765044;32;37993;-80
2024/01/29 16:02:39;;;;;;;16.52;6.95;;;;;;;10.42;36.04;101911.63;7765271;32;36965;-81
2024/01/29 16:06:55;;;;;;;15.30;8.00;;;;;;;10.10;37.00;101914.25;7764913;32;39454;-81
2024/01/29 16:11:12;;;;;;;13.57;7.87;;;;;;;9.59;37.75;101915.09;7764505;32;39851;-81
2024/01/29 16:15:28;;;;;;;13.10;7.82;;;;;;;9.38;38.43;101927.03;7764783;32;38620;-81
2024/01/29 16:19:45;;;;;;;16.77;8.52;;;;;;;8.82;39.56;101933.75;7750860;32;37286;-80
2024/01/29 16:24:04;;;;;;;18.65;9.23;;;;;;;8.64;40.05;101934.34;7764699;32;39368;-80
2024/01/29 16:28:20;;;;;;;14.27;8.35;;;;;;;8.56;40.16;101951.72;7764599;32;39920;-81
2024/01/29 16:32:37;;;;;;;15.90;9.20;;;;;;;8.42;40.32;101950.84;7764631;32;38634;-81
2024/01/29 16:36:54;;;;;;;20.95;9.40;;;;;;;8.12;41.23;101949.44;7760373;32;37282;-81
2024/01/29 16:41:21;;;;;;;17.85;9.00;;;;;;;8.01;41.38;101953.59;7763459;32;38438;-80
2024/01/29 16:45:38;;;;;;;21.10;10.70;;;;;;;7.93;41.52;101957.28;7759663;32;39767;-80
2024/01/29 16:49:55;;;;;;;15.95;8.45;;;;;;;7.67;42.15;101952.56;7762750;32;38609;-80
2024/01/29 16:54:12;;;;;;;18.37;8.55;;;;;;;7.27;43.20;101953.13;7758762;32;37947;-81
2024/01/29 16:58:28;;;;;;;16.65;9.32;;;;;;;6.99;43.99;101947.69;7747933;32;39013;-80
2024/01/29 17:02:46;;;;;;;18.48;8.85;;;;;;;6.93;44.04;101952.03;7763999;32;39755;-81
2024/01/29 17:07:03;;;;;;;16.48;9.13;;;;;;;6.69;44.67;101964.09;7763408;32;37640;-80
2024/01/29 17:11:20;;;;;;;18.65;9.10;;;;;;;6.86;44.21;101951.09;7763260;32;37047;-81
2024/01/29 17:15:37;;;;;;;17.20;9.32;;;;;;;7.02;43.54;101957.28;7763465;32;39095;-80
2024/01/29 17:19:53;;;;;;;19.00;9.25;;;;;;;6.65;44.64;101959.25;7763177;32;39976;-80
2024/01/29 17:24:10;;;;;;;20.85;9.80;;;;;;;6.46;45.09;101966.94;7766671;32;38226;-80
2024/01/29 17:28:28;;;;;;;18.55;9.65;;;;;;;6.32;45.39;101968.66;7766016;32;37358;-80
2024/01/29 17:32:44;;;;;;;20.52;9.90;;;;;;;6.46;44.83;101966.13;7767077;32;39901;-80
2024/01/29 17:37:01;;;;;;;20.88;10.23;;;;;;;6.31;45.31;101975.13;7766128;32;40749;-80
2024/01/29 17:41:20;;;;;;;19.45;10.30;;;;;;;6.09;45.68;101973.38;7766199;32;38677;-80
2024/01/29 17:45:40;;;;;;;25.00;10.43;;;;;;;5.82;46.79;101981.12;7766408;32;37442;-81
2024/01/29 17:49:56;;;;;;;21.15;10.45;;;;;;;6.11;45.91;101982.16;7765662;32;39905;-80
2024/01/29 17:54:18;;;;;;;24.67;11.18;;;;;;;5.98;46.07;101986.34;7766629;32;40748;-80
2024/01/29 17:58:36;;;;;;;22.13;10.13;;;;;;;5.88;46.30;101984.94;7765942;32;38009;-80
2024/01/29 18:02:52;;;;;;;14.63;9.48;;;;;;;5.68;46.84;101987.38;7766078;32;36928;-80
2024/01/29 18:07:09;;;;;;;25.62;12.05;;;;;;;5.60;47.15;101994.53;7766069;32;39471;-80
2024/01/29 18:11:26;;;;;;;20.92;11.63;;;;;;;5.27;48.29;101994.84;7765838;32;40587;-80
2024/01/29 18:15:44;;;;;;;23.87;13.02;;;;;;;5.21;48.73;101990.19;7765888;32;38756;-80
2024/01/29 18:20:00;;;;;;;27.02;12.70;;;;;;;5.13;49.29;101992.13;7765319;32;37035;-80
2024/01/29 18:24:19;;;;;;;23.98;13.68;;;;;;;5.18;49.49;102004.06;7766336;32;40189;-81
2024/01/29 18:28:36;;;;;;;30.12;16.70;;;;;;;5.15;49.45;101996.31;7765570;32;40091;-80
2024/01/29 18:32:53;;;;;;;33.05;17.52;;;;;;;4.87;50.61;102014.94;7765478;32;38658;-80
2024/01/29 18:37:09;;;;;;;33.38;18.23;;;;;;;4.57;53.17;102019.34;7765444;32;37294;-81
2024/01/29 18:41:27;;;;;;;34.85;18.12;;;;;;;4.61;52.88;102012.59;7765177;32;39218;-81
2024/01/29 18:45:44;;;;;;;32.85;18.12;;;;;;;4.56;52.87;102023.09;7765643;32;40797;-80
2024/01/29 18:50:00;;;;;;;34.65;18.42;;;;;;;4.43;52.96;102029.91;7763886;32;37758;-79
2024/01/29 18:54:16;;;;;;;37.25;17.33;;;;;;;4.33;52.13;102029.28;7764032;32;37152;-79
2024/01/29 18:58:34;;;;;;;32.05;16.65;;;;;;;4.13;53.18;102040.47;7765427;32;40008;-78
2024/01/29 19:02:52;;;;;;;33.55;15.70;;;;;;;4.17;52.72;102042.81;7765298;32;40302;-80
2024/01/29 19:07:08;;;;;;;28.48;14.45;;;;;;;3.99;53.84;102049.28;7765572;32;37721;-80
2024/01/29 19:11:26;;;;;;;31.40;14.50;;;;;;;3.97;53.08;102045.94;7764456;32;38306;-80
2024/01/29 19:15:45;;;;;;;25.52;14.43;;;;;;;4.22;52.30;102049.38;7765667;32;40144;-79
2024/01/29 19:20:02;;;;;;;29.27;14.82;;;;;;;4.21;52.43;102050.41;7759696;32;40050;-76
2024/01/29 19:24:18;;;;;;;25.67;13.73;;;;;;;3.84;53.87;102061.81;7764371;32;37787;-79
2024/01/29 19:28:34;;;;;;;27.05;15.02;;;;;;;3.80;53.75;102060.47;7764219;32;37182;-79
2024/01/29 19:32:51;;;;;;;26.65;12.75;;;;;;;3.89;53.53;102064.84;7737903;32;40064;-79
2024/01/29 19:37:07;;;;;;;26.73;13.88;;;;;;;4.09;53.02;102059.91;7757251;32;40017;-79
2024/01/29 19:41:24;;;;;;;28.62;15.45;;;;;;;3.87;52.94;102066.88;7764153;32;37908;-79
2024/01/29 19:45:41;;;;;;;31.73;16.33;;;;;;;4.02;52.59;102064.28;7764464;32;38045;-79
2024/01/29 19:49:58;;;;;;;30.83;16.55;;;;;;;4.02;52.47;102065.16;7763946;32;40058;-79